createdAt,value
2023-04-30T00:00:20.008Z,22.93
2023-04-30T00:01:20.013Z,22.96
2023-04-30T00:02:20.057Z,22.97
2023-04-30T00:03:20.144Z,22.98
2023-04-30T00:04:20.150Z,22.99
2023-04-30T00:05:20.070Z,23.00
2023-04-30T00:06:20.097Z,23.00
2023-04-30T00:07:20.074Z,23.01
2023-04-30T00:08:20.070Z,23.00
2023-04-30T00:09:20.095Z,23.01
2023-04-30T00:10:20.123Z,23.01
2023-04-30T00:11:20.164Z,23.01
2023-04-30T00:12:20.219Z,23.01
2023-04-30T00:13:20.278Z,23.01
2023-04-30T00:14:20.264Z,23.00
2023-04-30T00:15:20.292Z,23.00
2023-04-30T00:16:20.357Z,23.02
2023-04-30T00:17:20.365Z,23.01
2023-04-30T00:18:20.392Z,23.00
2023-04-30T00:19:20.399Z,23.00
2023-04-30T00:20:20.405Z,23.00
2023-04-30T00:21:20.432Z,23.00
2023-04-30T00:22:20.465Z,23.01
2023-04-30T00:23:20.494Z,23.01
2023-04-30T00:24:20.517Z,23.00
2023-04-30T00:25:20.506Z,23.01
2023-04-30T00:26:20.540Z,23.00
2023-04-30T00:27:20.522Z,23.00
2023-04-30T00:28:20.531Z,22.99
2023-04-30T00:29:20.569Z,23.00
2023-04-30T00:30:20.548Z,23.00
2023-04-30T00:31:20.653Z,23.00
2023-04-30T00:32:20.624Z,23.00
2023-04-30T00:33:20.638Z,22.99
2023-04-30T00:34:20.666Z,22.99
2023-04-30T00:35:20.664Z,22.99
2023-04-30T00:36:20.721Z,23.00
2023-04-30T00:37:20.753Z,22.99
2023-04-30T00:38:20.773Z,22.99
2023-04-30T00:39:20.825Z,22.99
2023-04-30T00:40:20.848Z,22.99
2023-04-30T00:41:20.912Z,22.99
2023-04-30T00:42:20.902Z,22.99
2023-04-30T00:43:20.941Z,22.99
2023-04-30T00:44:20.962Z,22.99
2023-04-30T00:45:21.104Z,22.99
2023-04-30T00:46:21.132Z,22.99
2023-04-30T00:47:21.079Z,22.99
2023-04-30T00:48:21.041Z,22.99
2023-04-30T00:49:21.085Z,22.99
2023-04-30T00:50:21.104Z,22.99
2023-04-30T00:51:21.136Z,22.99
2023-04-30T00:52:21.145Z,22.99
2023-04-30T00:53:21.175Z,22.99
2023-04-30T00:54:21.246Z,22.99
2023-04-30T00:55:21.239Z,22.99
2023-04-30T00:56:21.261Z,22.99
2023-04-30T00:57:21.285Z,22.98
2023-04-30T00:58:21.285Z,22.99
2023-04-30T00:59:21.334Z,22.99
2023-04-30T01:00:21.339Z,22.98
2023-04-30T01:01:21.474Z,22.98
2023-04-30T01:02:21.502Z,22.98
2023-04-30T01:03:21.488Z,22.98
2023-04-30T01:04:21.460Z,22.98
2023-04-30T01:05:21.492Z,22.98
2023-04-30T01:06:21.544Z,22.98
2023-04-30T01:07:21.543Z,22.98
2023-04-30T01:08:21.569Z,22.98
2023-04-30T01:09:21.583Z,22.98
2023-04-30T01:10:21.648Z,22.98
2023-04-30T01:11:21.625Z,22.98
2023-04-30T01:12:21.656Z,22.98
2023-04-30T01:13:21.693Z,22.99
2023-04-30T01:14:21.717Z,22.98
2023-04-30T01:15:21.728Z,22.98
2023-04-30T01:16:21.784Z,22.97
2023-04-30T01:17:21.827Z,22.97
2023-04-30T01:18:21.922Z,22.98
2023-04-30T01:19:21.857Z,22.97
2023-04-30T01:20:21.859Z,22.97
2023-04-30T01:21:21.869Z,22.97
2023-04-30T01:22:21.886Z,22.97
2023-04-30T01:23:21.928Z,22.97
2023-04-30T01:24:21.937Z,22.97
2023-04-30T01:25:21.968Z,22.97
2023-04-30T01:26:22.034Z,22.97
2023-04-30T01:27:22.056Z,22.97
2023-04-30T01:28:22.078Z,22.96
2023-04-30T01:29:22.130Z,22.97
2023-04-30T01:30:22.164Z,22.96
2023-04-30T01:31:22.234Z,22.96
2023-04-30T01:32:22.367Z,22.97
2023-04-30T01:33:22.311Z,22.97
2023-04-30T01:34:22.322Z,22.96
2023-04-30T01:35:22.361Z,22.96
2023-04-30T01:36:22.400Z,22.96
2023-04-30T01:37:22.438Z,22.96
2023-04-30T01:38:22.470Z,22.96
2023-04-30T01:39:22.510Z,22.96
2023-04-30T01:40:22.556Z,22.96
2023-04-30T01:41:22.586Z,22.96
2023-04-30T01:42:22.650Z,22.96
2023-04-30T01:43:22.679Z,22.96
2023-04-30T01:44:22.709Z,22.96
2023-04-30T01:45:22.742Z,22.96
2023-04-30T01:46:22.838Z,22.96
2023-04-30T01:47:22.803Z,22.96
2023-04-30T01:48:22.803Z,22.97
2023-04-30T01:49:22.838Z,22.96
2023-04-30T01:50:22.825Z,22.96
2023-04-30T01:51:22.836Z,22.96
2023-04-30T01:52:22.858Z,22.95
2023-04-30T01:53:22.889Z,22.96
2023-04-30T01:54:22.928Z,22.96
2023-04-30T01:55:22.974Z,22.96
2023-04-30T01:56:23.011Z,22.95
2023-04-30T01:57:23.067Z,22.95
2023-04-30T01:58:23.103Z,22.95
2023-04-30T01:59:23.140Z,22.95
2023-04-30T02:00:23.182Z,22.95
2023-04-30T02:01:23.242Z,22.95
2023-04-30T02:02:23.362Z,22.95
2023-04-30T02:03:23.395Z,22.95
2023-04-30T02:04:23.348Z,22.95
2023-04-30T02:05:23.419Z,22.95
2023-04-30T02:06:23.511Z,22.95
2023-04-30T02:07:23.485Z,22.95
2023-04-30T02:08:23.522Z,22.95
2023-04-30T02:09:23.568Z,22.95
2023-04-30T02:10:23.650Z,22.95
2023-04-30T02:11:23.654Z,22.94
2023-04-30T02:12:23.692Z,22.94
2023-04-30T02:13:23.733Z,22.95
2023-04-30T02:14:23.743Z,22.95
2023-04-30T02:15:23.768Z,22.94
2023-04-30T02:16:23.899Z,22.94
2023-04-30T02:17:23.831Z,22.94
2023-04-30T02:18:23.892Z,22.95
2023-04-30T02:19:23.921Z,22.94
2023-04-30T02:20:23.963Z,22.94
2023-04-30T02:21:24.013Z,22.94
2023-04-30T02:22:23.994Z,22.94
2023-04-30T02:23:24.054Z,22.94
2023-04-30T02:24:24.088Z,22.93
2023-04-30T02:25:24.133Z,22.94
2023-04-30T02:26:24.180Z,22.94
2023-04-30T02:27:24.225Z,22.94
2023-04-30T02:28:24.269Z,22.94
2023-04-30T02:29:24.320Z,22.94
2023-04-30T02:30:24.365Z,22.94
2023-04-30T02:31:24.449Z,22.93
2023-04-30T02:32:24.486Z,22.93
2023-04-30T02:33:24.493Z,22.93
2023-04-30T02:34:24.544Z,22.93
2023-04-30T02:35:24.577Z,22.93
2023-04-30T02:36:24.625Z,22.93
2023-04-30T02:37:24.685Z,22.94
2023-04-30T02:38:24.703Z,22.94
2023-04-30T02:39:24.751Z,22.93
2023-04-30T02:40:24.793Z,22.93
2023-04-30T02:41:24.821Z,22.93
2023-04-30T02:42:24.864Z,22.93
2023-04-30T02:43:24.900Z,22.93
2023-04-30T02:44:24.946Z,22.93
2023-04-30T02:45:25.008Z,22.94
2023-04-30T02:46:25.075Z,22.93
2023-04-30T02:47:25.074Z,22.92
2023-04-30T02:48:25.094Z,22.92
2023-04-30T02:49:25.135Z,22.93
2023-04-30T02:50:25.159Z,22.93
2023-04-30T02:51:25.183Z,22.93
2023-04-30T02:52:25.192Z,22.92
2023-04-30T02:53:25.263Z,22.92
2023-04-30T02:54:25.281Z,22.92
2023-04-30T02:55:25.333Z,22.93
2023-04-30T02:56:25.363Z,22.92
2023-04-30T02:57:25.427Z,22.92
2023-04-30T02:58:25.452Z,22.92
2023-04-30T02:59:25.484Z,22.92
2023-04-30T03:00:25.536Z,22.92
2023-04-30T03:01:25.604Z,22.92
2023-04-30T03:02:25.657Z,22.92
2023-04-30T03:03:25.726Z,22.92
2023-04-30T03:04:25.704Z,22.92
2023-04-30T03:05:25.740Z,22.92
2023-04-30T03:06:25.827Z,22.92
2023-04-30T03:07:25.811Z,22.91
2023-04-30T03:08:25.821Z,22.91
2023-04-30T03:09:25.899Z,22.91
2023-04-30T03:10:25.913Z,22.91
2023-04-30T03:11:25.943Z,22.91
2023-04-30T03:12:25.977Z,22.91
2023-04-30T03:13:26.019Z,22.91
2023-04-30T03:14:26.041Z,22.91
2023-04-30T03:15:26.090Z,22.91
2023-04-30T03:16:26.223Z,22.91
2023-04-30T03:17:26.212Z,22.91
2023-04-30T03:18:26.199Z,22.91
2023-04-30T03:19:26.239Z,22.91
2023-04-30T03:20:26.282Z,22.91
2023-04-30T03:21:26.329Z,22.91
2023-04-30T03:22:26.369Z,22.91
2023-04-30T03:23:26.423Z,22.91
2023-04-30T03:24:26.465Z,22.91
2023-04-30T03:25:26.622Z,22.91
2023-04-30T03:26:26.541Z,22.91
2023-04-30T03:27:26.579Z,22.90
2023-04-30T03:28:26.661Z,22.91
2023-04-30T03:29:26.678Z,22.90
2023-04-30T03:30:26.724Z,22.90
2023-04-30T03:31:26.818Z,22.90
2023-04-30T03:32:26.828Z,22.90
2023-04-30T03:33:26.878Z,22.90
2023-04-30T03:34:26.886Z,22.90
2023-04-30T03:35:26.907Z,22.90
2023-04-30T03:36:26.945Z,22.90
2023-04-30T03:37:26.983Z,22.90
2023-04-30T03:38:27.032Z,22.90
2023-04-30T03:39:27.073Z,22.89
2023-04-30T03:40:27.135Z,22.90
2023-04-30T03:41:27.209Z,22.90
2023-04-30T03:42:27.228Z,22.90
2023-04-30T03:43:27.289Z,22.90
2023-04-30T03:44:27.343Z,22.90
2023-04-30T03:45:27.372Z,22.90
2023-04-30T03:46:27.458Z,22.89
2023-04-30T03:47:27.551Z,22.89
2023-04-30T03:48:27.503Z,22.89
2023-04-30T03:49:27.551Z,22.90
2023-04-30T03:50:27.602Z,22.89
2023-04-30T03:51:27.655Z,22.89
2023-04-30T03:52:27.693Z,22.89
2023-04-30T03:53:27.737Z,22.89
2023-04-30T03:54:27.784Z,22.89
2023-04-30T03:55:27.819Z,22.88
2023-04-30T03:56:27.832Z,22.89
2023-04-30T03:57:27.874Z,22.89
2023-04-30T03:58:27.884Z,22.89
2023-04-30T03:59:27.919Z,22.88
2023-04-30T04:00:27.974Z,22.89
2023-04-30T04:01:28.016Z,22.89
2023-04-30T04:02:28.127Z,22.89
2023-04-30T04:03:28.118Z,22.89
2023-04-30T04:04:28.243Z,22.88
2023-04-30T04:05:28.178Z,22.88
2023-04-30T04:06:28.265Z,22.88
2023-04-30T04:07:28.273Z,22.89
2023-04-30T04:08:28.307Z,22.88
2023-04-30T04:09:28.355Z,22.88
2023-04-30T04:10:28.389Z,22.88
2023-04-30T04:11:28.467Z,22.88
2023-04-30T04:12:28.487Z,22.88
2023-04-30T04:13:28.561Z,22.88
2023-04-30T04:14:28.563Z,22.88
2023-04-30T04:15:28.611Z,22.88
2023-04-30T04:16:28.754Z,22.88
2023-04-30T04:17:28.727Z,22.87
2023-04-30T04:18:28.737Z,22.89
2023-04-30T04:19:28.787Z,22.87
2023-04-30T04:20:28.831Z,22.88
2023-04-30T04:21:28.864Z,22.88
2023-04-30T04:22:28.906Z,22.88
2023-04-30T04:23:28.917Z,22.89
2023-04-30T04:24:28.945Z,22.88
2023-04-30T04:25:28.976Z,22.88
2023-04-30T04:26:29.044Z,22.88
2023-04-30T04:27:29.076Z,22.88
2023-04-30T04:28:29.116Z,22.88
2023-04-30T04:29:29.186Z,22.88
2023-04-30T04:30:29.224Z,22.88
2023-04-30T04:31:29.251Z,22.88
2023-04-30T04:32:29.280Z,22.87
2023-04-30T04:33:29.311Z,22.87
2023-04-30T04:34:29.367Z,22.88
2023-04-30T04:35:29.414Z,22.87
2023-04-30T04:36:29.449Z,22.88
2023-04-30T04:37:29.500Z,22.87
2023-04-30T04:38:29.547Z,22.87
2023-04-30T04:39:29.601Z,22.88
2023-04-30T04:40:31.163Z,22.87
2023-04-30T04:41:29.639Z,22.87
2023-04-30T04:42:29.627Z,22.87
2023-04-30T04:43:29.616Z,22.88
2023-04-30T04:44:29.611Z,22.87
2023-04-30T04:45:29.631Z,22.87
2023-04-30T04:46:29.676Z,22.87
2023-04-30T04:47:29.616Z,22.87
2023-04-30T04:48:29.582Z,22.87
2023-04-30T04:49:29.571Z,22.87
2023-04-30T04:50:29.567Z,22.87
2023-04-30T04:51:29.558Z,22.87
2023-04-30T04:52:29.548Z,22.87
2023-04-30T04:53:29.544Z,22.87
2023-04-30T04:54:29.537Z,22.87
2023-04-30T04:55:29.525Z,22.87
2023-04-30T04:56:29.520Z,22.88
2023-04-30T04:57:29.510Z,22.87
2023-04-30T04:58:29.509Z,22.87
2023-04-30T04:59:29.498Z,22.87
2023-04-30T05:00:29.484Z,22.87
2023-04-30T05:01:29.569Z,22.87
2023-04-30T05:02:29.533Z,22.87
2023-04-30T05:03:29.613Z,22.86
2023-04-30T05:04:29.482Z,22.87
2023-04-30T05:05:29.460Z,22.87
2023-04-30T05:06:29.456Z,22.87
2023-04-30T05:07:29.440Z,22.87
2023-04-30T05:08:29.451Z,22.87
2023-04-30T05:09:29.431Z,22.87
2023-04-30T05:10:29.428Z,22.86
2023-04-30T05:11:29.419Z,22.86
2023-04-30T05:12:29.414Z,22.87
2023-04-30T05:13:29.399Z,22.87
2023-04-30T05:14:29.398Z,22.87
2023-04-30T05:15:29.437Z,22.87
2023-04-30T05:16:29.498Z,22.87
2023-04-30T05:17:29.720Z,22.87
2023-04-30T05:18:29.544Z,22.87
2023-04-30T05:19:29.584Z,22.87
2023-04-30T05:20:29.621Z,22.87
2023-04-30T05:21:29.708Z,22.87
2023-04-30T05:22:29.711Z,22.87
2023-04-30T05:23:29.741Z,22.87
2023-04-30T05:24:29.760Z,22.87
2023-04-30T05:25:29.783Z,22.87
2023-04-30T05:26:29.819Z,22.87
2023-04-30T05:27:29.846Z,22.87
2023-04-30T05:28:29.890Z,22.87
2023-04-30T05:29:29.945Z,22.87
2023-04-30T05:30:29.996Z,22.87
2023-04-30T05:31:30.082Z,22.88
2023-04-30T05:32:30.110Z,22.87
2023-04-30T05:33:30.126Z,22.88
2023-04-30T05:34:30.145Z,22.87
2023-04-30T05:35:30.189Z,22.87
2023-04-30T05:36:30.239Z,22.87
2023-04-30T05:37:30.282Z,22.87
2023-04-30T05:38:30.302Z,22.88
2023-04-30T05:39:30.331Z,22.87
2023-04-30T05:40:30.362Z,22.88
2023-04-30T05:41:30.381Z,22.87
2023-04-30T05:42:30.413Z,22.88
2023-04-30T05:43:30.424Z,22.88
2023-04-30T05:44:30.518Z,22.88
2023-04-30T05:45:30.532Z,22.88
2023-04-30T05:46:30.618Z,22.87
2023-04-30T05:47:30.582Z,22.89
2023-04-30T05:48:30.622Z,22.88
2023-04-30T05:49:30.675Z,22.89
2023-04-30T05:50:30.670Z,22.89
2023-04-30T05:51:30.721Z,22.89
2023-04-30T05:52:30.777Z,22.89
2023-04-30T05:53:30.806Z,22.90
2023-04-30T05:54:30.844Z,22.89
2023-04-30T05:55:30.900Z,22.90
2023-04-30T05:56:30.897Z,22.90
2023-04-30T05:57:30.934Z,22.90
2023-04-30T05:58:30.968Z,22.90
2023-04-30T05:59:31.024Z,22.90
2023-04-30T06:00:31.060Z,22.90
2023-04-30T06:01:31.111Z,22.90
2023-04-30T06:02:31.270Z,22.90
2023-04-30T06:03:31.157Z,22.90
2023-04-30T06:04:31.188Z,22.90
2023-04-30T06:05:31.257Z,22.91
2023-04-30T06:06:31.327Z,22.91
2023-04-30T06:07:31.268Z,22.92
2023-04-30T06:08:31.312Z,22.91
2023-04-30T06:09:31.344Z,22.91
2023-04-30T06:10:31.367Z,22.91
2023-04-30T06:11:31.407Z,22.91
2023-04-30T06:12:31.430Z,22.91
2023-04-30T06:13:31.454Z,22.92
2023-04-30T06:14:31.477Z,22.92
2023-04-30T06:15:31.499Z,22.92
2023-04-30T06:16:31.609Z,22.91
2023-04-30T06:17:31.608Z,22.92
2023-04-30T06:18:31.642Z,22.92
2023-04-30T06:19:31.673Z,22.92
2023-04-30T06:20:31.701Z,22.92
2023-04-30T06:21:31.775Z,22.93
2023-04-30T06:22:31.786Z,22.93
2023-04-30T06:23:31.828Z,22.93
2023-04-30T06:24:31.870Z,22.93
2023-04-30T06:25:31.928Z,22.93
2023-04-30T06:26:31.964Z,22.94
2023-04-30T06:27:31.990Z,22.94
2023-04-30T06:28:32.035Z,22.94
2023-04-30T06:29:32.094Z,22.94
2023-04-30T06:30:32.110Z,22.94
2023-04-30T06:31:32.331Z,22.95
2023-04-30T06:32:32.219Z,22.95
2023-04-30T06:33:32.252Z,22.94
2023-04-30T06:34:32.267Z,22.94
2023-04-30T06:35:32.305Z,22.94
2023-04-30T06:36:32.366Z,22.95
2023-04-30T06:37:33.453Z,22.95
2023-04-30T06:38:32.425Z,22.95
2023-04-30T06:39:32.482Z,22.95
2023-04-30T06:40:32.513Z,22.95
2023-04-30T06:41:32.541Z,22.95
2023-04-30T06:42:32.583Z,22.95
2023-04-30T06:43:32.618Z,22.95
2023-04-30T06:44:32.664Z,22.96
2023-04-30T06:45:32.715Z,22.97
2023-04-30T06:46:32.730Z,22.96
2023-04-30T06:47:32.819Z,22.97
2023-04-30T06:48:32.793Z,22.96
2023-04-30T06:49:32.855Z,22.97
2023-04-30T06:50:32.878Z,22.97
2023-04-30T06:51:32.914Z,22.97
2023-04-30T06:52:32.952Z,22.97
2023-04-30T06:53:33.026Z,22.98
2023-04-30T06:54:33.041Z,22.98
2023-04-30T06:55:33.075Z,22.99
2023-04-30T06:56:33.113Z,23.00
2023-04-30T06:57:33.129Z,23.00
2023-04-30T06:58:33.178Z,23.00
2023-04-30T06:59:33.224Z,23.00
2023-04-30T07:00:33.262Z,23.00
2023-04-30T07:01:33.325Z,23.00
2023-04-30T07:02:33.431Z,22.99
2023-04-30T07:03:33.502Z,23.00
2023-04-30T07:04:33.403Z,23.00
2023-04-30T07:05:33.471Z,22.99
2023-04-30T07:06:33.528Z,22.99
2023-04-30T07:07:33.516Z,23.00
2023-04-30T07:08:33.525Z,23.00
2023-04-30T07:09:33.569Z,22.99
2023-04-30T07:10:33.573Z,23.00
2023-04-30T07:11:33.565Z,23.01
2023-04-30T07:12:33.577Z,23.00
2023-04-30T07:13:33.586Z,23.01
2023-04-30T07:14:33.593Z,23.00
2023-04-30T07:15:33.655Z,23.00
2023-04-30T07:16:33.906Z,23.00
2023-04-30T07:17:33.711Z,23.00
2023-04-30T07:18:33.724Z,23.00
2023-04-30T07:19:33.744Z,23.00
2023-04-30T07:20:33.780Z,23.00
2023-04-30T07:21:33.809Z,23.01
2023-04-30T07:22:33.839Z,23.00
2023-04-30T07:23:33.884Z,23.00
2023-04-30T07:24:33.912Z,23.01
2023-04-30T07:25:34.163Z,23.00
2023-04-30T07:26:33.986Z,23.01
2023-04-30T07:27:34.010Z,23.01
2023-04-30T07:28:34.056Z,23.01
2023-04-30T07:29:34.082Z,23.00
2023-04-30T07:30:34.112Z,23.01
2023-04-30T07:31:34.210Z,23.01
2023-04-30T07:32:34.209Z,23.00
2023-04-30T07:33:34.210Z,23.01
2023-04-30T07:34:34.223Z,23.00
2023-04-30T07:35:34.258Z,23.00
2023-04-30T07:36:34.293Z,23.01
2023-04-30T07:37:35.973Z,23.01
2023-04-30T07:38:34.318Z,23.01
2023-04-30T07:39:34.330Z,23.01
2023-04-30T07:40:35.825Z,23.02
2023-04-30T07:41:34.345Z,23.02
2023-04-30T07:42:34.280Z,23.02
2023-04-30T07:43:34.278Z,23.03
2023-04-30T07:44:34.266Z,23.02
2023-04-30T07:45:34.263Z,23.02
2023-04-30T07:46:34.412Z,23.03
2023-04-30T07:47:34.296Z,23.04
2023-04-30T07:48:34.241Z,23.03
2023-04-30T07:49:34.225Z,23.04
2023-04-30T07:50:34.449Z,23.04
2023-04-30T07:51:34.242Z,23.05
2023-04-30T07:52:34.217Z,23.06
2023-04-30T07:53:34.207Z,23.06
2023-04-30T07:54:34.202Z,23.07
2023-04-30T07:55:34.200Z,23.06
2023-04-30T07:56:34.185Z,23.06
2023-04-30T07:57:34.204Z,23.06
2023-04-30T07:58:34.174Z,23.07
2023-04-30T07:59:34.183Z,23.07
2023-04-30T08:00:34.174Z,23.07
2023-04-30T08:01:34.283Z,23.07
2023-04-30T08:02:34.405Z,23.07
2023-04-30T08:03:34.269Z,23.07
2023-04-30T08:04:34.430Z,23.08
2023-04-30T08:05:34.155Z,23.07
2023-04-30T08:06:34.178Z,23.08
2023-04-30T08:07:34.125Z,23.07
2023-04-30T08:08:34.112Z,23.07
2023-04-30T08:09:34.106Z,23.07
2023-04-30T08:10:34.635Z,23.08
2023-04-30T08:11:34.099Z,23.08
2023-04-30T08:12:34.087Z,23.09
2023-04-30T08:13:34.100Z,23.08
2023-04-30T08:14:34.082Z,23.09
2023-04-30T08:15:34.073Z,23.09
2023-04-30T08:16:34.082Z,23.10
2023-04-30T08:17:34.069Z,23.09
2023-04-30T08:18:34.044Z,23.10
2023-04-30T08:19:34.039Z,23.10
2023-04-30T08:20:34.874Z,23.11
2023-04-30T08:21:34.142Z,23.12
2023-04-30T08:22:34.152Z,23.11
2023-04-30T08:23:34.173Z,23.12
2023-04-30T08:24:34.201Z,23.12
2023-04-30T08:25:34.210Z,23.12
2023-04-30T08:26:34.202Z,23.13
2023-04-30T08:27:34.201Z,23.13
2023-04-30T08:28:34.204Z,23.13
2023-04-30T08:29:34.227Z,23.14
2023-04-30T08:30:34.201Z,23.14
2023-04-30T08:31:34.264Z,23.14
2023-04-30T08:32:34.284Z,23.14
2023-04-30T08:33:34.276Z,23.14
2023-04-30T08:34:34.286Z,23.15
2023-04-30T08:35:34.295Z,23.15
2023-04-30T08:36:34.286Z,23.15
2023-04-30T08:37:34.300Z,23.16
2023-04-30T08:38:34.300Z,23.16
2023-04-30T08:39:34.313Z,23.15
2023-04-30T08:40:50.189Z,23.16
2023-04-30T08:41:34.335Z,23.15
2023-04-30T08:42:34.319Z,23.16
2023-04-30T08:43:34.308Z,23.16
2023-04-30T08:44:34.302Z,23.16
2023-04-30T08:45:34.332Z,23.17
2023-04-30T08:46:34.346Z,23.16
2023-04-30T08:47:34.300Z,23.17
2023-04-30T08:48:34.284Z,23.17
2023-04-30T08:49:34.263Z,23.17
2023-04-30T08:50:34.273Z,23.17
2023-04-30T08:51:34.249Z,23.18
2023-04-30T08:52:34.251Z,23.17
2023-04-30T08:53:34.238Z,23.17
2023-04-30T08:54:34.230Z,23.18
2023-04-30T08:55:34.246Z,23.18
2023-04-30T08:56:34.215Z,23.18
2023-04-30T08:57:34.210Z,23.18
2023-04-30T08:58:34.213Z,23.19
2023-04-30T08:59:34.212Z,23.19
2023-04-30T09:00:34.194Z,23.20
2023-04-30T09:01:34.220Z,23.20
2023-04-30T09:02:34.244Z,23.19
2023-04-30T09:03:34.285Z,23.20
2023-04-30T09:04:34.165Z,23.22
2023-04-30T09:05:34.163Z,23.22
2023-04-30T09:06:34.202Z,23.21
2023-04-30T09:07:34.144Z,23.21
2023-04-30T09:08:34.133Z,23.20
2023-04-30T09:09:34.131Z,23.21
2023-04-30T09:10:34.133Z,23.20
2023-04-30T09:11:34.122Z,23.20
2023-04-30T09:12:34.105Z,23.19
2023-04-30T09:13:34.099Z,23.19
2023-04-30T09:14:34.091Z,23.20
2023-04-30T09:15:34.217Z,23.20
2023-04-30T09:16:34.138Z,23.20
2023-04-30T09:17:34.195Z,23.20
2023-04-30T09:18:34.062Z,23.20
2023-04-30T09:19:34.053Z,23.20
2023-04-30T09:20:34.056Z,23.21
2023-04-30T09:21:34.050Z,23.21
2023-04-30T09:22:34.035Z,23.21
2023-04-30T09:23:34.736Z,23.21
2023-04-30T09:24:34.018Z,23.22
2023-04-30T09:25:34.018Z,23.21
2023-04-30T09:26:34.030Z,23.21
2023-04-30T09:27:34.003Z,23.21
2023-04-30T09:28:34.000Z,23.22
2023-04-30T09:29:34.288Z,23.22
2023-04-30T09:30:33.986Z,23.23
2023-04-30T09:31:34.051Z,23.23
2023-04-30T09:32:34.011Z,23.25
2023-04-30T09:33:33.989Z,23.25
2023-04-30T09:34:33.949Z,23.25
2023-04-30T09:35:33.987Z,23.25
2023-04-30T09:36:33.945Z,23.25
2023-04-30T09:37:33.929Z,23.24
2023-04-30T09:38:33.919Z,23.23
2023-04-30T09:39:33.923Z,23.24
2023-04-30T09:40:33.911Z,23.23
2023-04-30T09:41:33.899Z,23.23
2023-04-30T09:42:33.932Z,23.24
2023-04-30T09:43:33.946Z,23.24
2023-04-30T09:44:33.951Z,23.24
2023-04-30T09:45:33.967Z,23.24
2023-04-30T09:46:34.020Z,23.23
2023-04-30T09:47:34.058Z,23.24
2023-04-30T09:48:34.096Z,23.25
2023-04-30T09:49:34.069Z,23.25
2023-04-30T09:50:34.044Z,23.25
2023-04-30T09:51:34.061Z,23.25
2023-04-30T09:52:34.069Z,23.25
2023-04-30T09:53:34.089Z,23.25
2023-04-30T09:54:34.081Z,23.27
2023-04-30T09:55:34.093Z,23.28
2023-04-30T09:56:34.104Z,23.28
2023-04-30T09:57:34.112Z,23.26
2023-04-30T09:58:34.127Z,23.27
2023-04-30T09:59:34.163Z,23.27
2023-04-30T10:00:34.180Z,23.28
2023-04-30T10:01:34.174Z,23.28
2023-04-30T10:02:34.197Z,23.28
2023-04-30T10:03:34.189Z,23.28
2023-04-30T10:04:34.183Z,23.27
2023-04-30T10:05:34.236Z,23.27
2023-04-30T10:06:34.265Z,23.28
2023-04-30T10:07:34.226Z,23.29
2023-04-30T10:08:34.238Z,23.28
2023-04-30T10:09:34.246Z,23.28
2023-04-30T10:10:34.261Z,23.27
2023-04-30T10:11:34.268Z,23.28
2023-04-30T10:12:34.273Z,23.29
2023-04-30T10:13:34.283Z,23.30
2023-04-30T10:14:34.283Z,23.32
2023-04-30T10:15:34.295Z,23.32
2023-04-30T10:16:34.329Z,23.32
2023-04-30T10:17:34.350Z,23.32
2023-04-30T10:18:34.334Z,23.32
2023-04-30T10:19:34.326Z,23.31
2023-04-30T10:20:34.338Z,23.32
2023-04-30T10:21:34.369Z,23.31
2023-04-30T10:22:34.351Z,23.32
2023-04-30T10:23:34.363Z,23.32
2023-04-30T10:24:34.377Z,23.32
2023-04-30T10:25:34.379Z,23.32
2023-04-30T10:26:34.394Z,23.32
2023-04-30T10:27:34.385Z,23.31
2023-04-30T10:28:34.391Z,23.32
2023-04-30T10:29:34.394Z,23.32
2023-04-30T10:30:34.436Z,23.30
2023-04-30T10:31:34.556Z,23.31
2023-04-30T10:32:34.449Z,23.31
2023-04-30T10:33:34.451Z,23.33
2023-04-30T10:34:34.441Z,23.35
2023-04-30T10:35:34.443Z,23.34
2023-04-30T10:36:34.444Z,23.34
2023-04-30T10:37:34.502Z,23.33
2023-04-30T10:38:34.462Z,23.35
2023-04-30T10:39:34.481Z,23.36
2023-04-30T10:40:34.463Z,23.37
2023-04-30T10:41:34.476Z,23.38
2023-04-30T10:42:34.496Z,23.37
2023-04-30T10:43:34.471Z,23.38
2023-04-30T10:44:34.467Z,23.38
2023-04-30T10:45:34.469Z,23.38
2023-04-30T10:46:34.497Z,23.37
2023-04-30T10:47:34.488Z,23.37
2023-04-30T10:48:34.456Z,23.36
2023-04-30T10:49:34.462Z,23.36
2023-04-30T10:50:34.453Z,23.36
2023-04-30T10:51:34.460Z,23.37
2023-04-30T10:52:34.452Z,23.38
2023-04-30T10:53:34.584Z,23.40
2023-04-30T10:54:34.467Z,23.41
2023-04-30T10:55:34.450Z,23.40
2023-04-30T10:56:34.457Z,23.41
2023-04-30T10:57:34.447Z,23.41
2023-04-30T10:58:34.467Z,23.41
2023-04-30T10:59:34.458Z,23.41
2023-04-30T11:00:34.460Z,23.43
2023-04-30T11:01:34.498Z,23.43
2023-04-30T11:02:34.510Z,23.44
2023-04-30T11:03:34.480Z,23.45
2023-04-30T11:04:34.502Z,23.45
2023-04-30T11:05:34.482Z,23.44
2023-04-30T11:06:34.530Z,23.43
2023-04-30T11:07:34.485Z,23.42
2023-04-30T11:08:34.491Z,23.44
2023-04-30T11:09:34.506Z,23.44
2023-04-30T11:10:34.480Z,23.44
2023-04-30T11:11:34.487Z,23.44
2023-04-30T11:12:34.488Z,23.43
2023-04-30T11:13:34.479Z,23.43
2023-04-30T11:14:34.489Z,23.44
2023-04-30T11:15:34.585Z,23.45
2023-04-30T11:16:34.755Z,23.47
2023-04-30T11:17:34.536Z,23.46
2023-04-30T11:18:34.512Z,23.46
2023-04-30T11:19:34.507Z,23.46
2023-04-30T11:20:34.501Z,23.46
2023-04-30T11:21:34.510Z,23.47
2023-04-30T11:22:34.518Z,23.48
2023-04-30T11:24:33.508Z,23.48
2023-04-30T11:25:34.526Z,23.50
2023-04-30T11:26:34.494Z,23.50
2023-04-30T11:27:34.488Z,23.50
2023-04-30T11:28:34.485Z,23.52
2023-04-30T11:29:34.557Z,23.51
2023-04-30T11:30:34.474Z,23.52
2023-04-30T11:31:34.525Z,23.52
2023-04-30T11:32:34.503Z,23.52
2023-04-30T11:33:34.451Z,23.52
2023-04-30T11:34:34.438Z,23.51
2023-04-30T11:35:34.429Z,23.50
2023-04-30T11:36:34.449Z,23.50
2023-04-30T11:37:34.416Z,23.49
2023-04-30T11:38:34.407Z,23.48
2023-04-30T11:39:34.402Z,23.48
2023-04-30T11:40:34.404Z,23.50
2023-04-30T11:41:34.415Z,23.49
2023-04-30T11:42:34.386Z,23.50
2023-04-30T11:43:34.385Z,23.49
2023-04-30T11:44:34.366Z,23.50
2023-04-30T11:45:34.358Z,23.51
2023-04-30T11:46:34.408Z,23.50
2023-04-30T11:47:34.369Z,23.50
2023-04-30T11:48:34.339Z,23.51
2023-04-30T11:49:34.331Z,23.51
2023-04-30T11:50:34.329Z,23.52
2023-04-30T11:51:34.306Z,23.52
2023-04-30T11:52:34.306Z,23.52
2023-04-30T11:53:34.307Z,23.52
2023-04-30T11:54:34.293Z,23.52
2023-04-30T11:55:34.297Z,23.52
2023-04-30T11:56:34.280Z,23.53
2023-04-30T11:57:34.299Z,23.53
2023-04-30T11:58:34.281Z,23.54
2023-04-30T11:59:34.257Z,23.55
2023-04-30T12:00:34.252Z,23.54
2023-04-30T12:01:34.273Z,23.55
2023-04-30T12:02:34.393Z,23.56
2023-04-30T12:03:34.378Z,23.55
2023-04-30T12:04:34.407Z,23.56
2023-04-30T12:05:34.215Z,23.55
2023-04-30T12:06:34.247Z,23.56
2023-04-30T12:07:34.206Z,23.56
2023-04-30T12:08:34.214Z,23.56
2023-04-30T12:09:34.188Z,23.56
2023-04-30T12:10:34.188Z,23.57
2023-04-30T12:11:34.169Z,23.57
2023-04-30T12:12:34.165Z,23.57
2023-04-30T12:13:34.286Z,23.58
2023-04-30T12:14:34.154Z,23.57
2023-04-30T12:15:34.148Z,23.58
2023-04-30T12:16:34.155Z,23.57
2023-04-30T12:17:34.225Z,23.57
2023-04-30T12:18:34.129Z,23.57
2023-04-30T12:19:34.112Z,23.57
2023-04-30T12:20:34.117Z,23.57
2023-04-30T12:21:34.124Z,23.57
2023-04-30T12:22:34.135Z,23.58
2023-04-30T12:23:34.153Z,23.58
2023-04-30T12:24:34.151Z,23.58
2023-04-30T12:25:34.156Z,23.58
2023-04-30T12:26:34.159Z,23.58
2023-04-30T12:27:34.170Z,23.58
2023-04-30T12:28:34.153Z,23.58
2023-04-30T12:29:34.192Z,23.58
2023-04-30T12:30:34.166Z,23.58
2023-04-30T12:31:34.184Z,23.59
2023-04-30T12:32:34.199Z,23.59
2023-04-30T12:33:34.175Z,23.59
2023-04-30T12:34:34.168Z,23.59
2023-04-30T12:35:34.199Z,23.59
2023-04-30T12:36:34.186Z,23.60
2023-04-30T12:37:34.179Z,23.60
2023-04-30T12:38:34.200Z,23.60
2023-04-30T12:39:34.262Z,23.59
2023-04-30T12:40:34.319Z,23.61
2023-04-30T12:41:34.329Z,23.61
2023-04-30T12:42:34.359Z,23.60
2023-04-30T12:43:34.424Z,23.60
2023-04-30T12:44:34.453Z,23.60
2023-04-30T12:45:34.483Z,23.60
2023-04-30T12:46:34.486Z,23.60
2023-04-30T12:47:35.490Z,23.60
2023-04-30T12:48:34.455Z,23.60
2023-04-30T12:49:34.469Z,23.60
2023-04-30T12:50:34.443Z,23.60
2023-04-30T12:51:34.439Z,23.60
2023-04-30T12:52:34.426Z,23.61
2023-04-30T12:53:34.422Z,23.60